sensor_id;sensor_type;location;lat;lon;timestamp;temperature;humidity
18305;DHT22;9278;52.156;21.048;2023-07-02T00:00:10;26.60;29.60
18305;DHT22;9278;52.156;21.048;2023-07-02T00:02:39;26.60;30.40
18305;DHT22;9278;52.156;21.048;2023-07-02T00:05:07;26.60;30.10
18305;DHT22;9278;52.156;21.048;2023-07-02T00:07:36;26.60;31.20
18305;DHT22;9278;52.156;21.048;2023-07-02T00:10:05;26.60;30.20
18305;DHT22;9278;52.156;21.048;2023-07-02T00:12:35;26.60;30.30
18305;DHT22;9278;52.156;21.048;2023-07-02T00:15:04;26.60;30.10
18305;DHT22;9278;52.156;21.048;2023-07-02T00:17:32;26.60;31.30
18305;DHT22;9278;52.156;21.048;2023-07-02T00:20:01;26.60;30.50
18305;DHT22;9278;52.156;21.048;2023-07-02T00:22:35;26.60;32.10
18305;DHT22;9278;52.156;21.048;2023-07-02T00:25:04;26.50;30.10
18305;DHT22;9278;52.156;21.048;2023-07-02T00:27:32;26.50;31.40
18305;DHT22;9278;52.156;21.048;2023-07-02T00:30:02;26.50;30.60
18305;DHT22;9278;52.156;21.048;2023-07-02T00:32:31;26.50;30.40
18305;DHT22;9278;52.156;21.048;2023-07-02T00:34:59;26.50;31.20
18305;DHT22;9278;52.156;21.048;2023-07-02T00:37:28;26.40;31.90
18305;DHT22;9278;52.156;21.048;2023-07-02T00:39:56;26.50;31.30
18305;DHT22;9278;52.156;21.048;2023-07-02T00:42:25;26.50;30.80
18305;DHT22;9278;52.156;21.048;2023-07-02T00:44:56;26.40;31.10
18305;DHT22;9278;52.156;21.048;2023-07-02T00:47:33;26.40;54.00
18305;DHT22;9278;52.156;21.048;2023-07-02T00:50:02;26.30;31.60
18305;DHT22;9278;52.156;21.048;2023-07-02T00:52:31;26.40;31.90
18305;DHT22;9278;52.156;21.048;2023-07-02T00:54:59;26.30;31.40
18305;DHT22;9278;52.156;21.048;2023-07-02T00:57:27;26.40;32.00
18305;DHT22;9278;52.156;21.048;2023-07-02T00:59:57;26.30;31.50
18305;DHT22;9278;52.156;21.048;2023-07-02T01:02:28;26.30;33.10
18305;DHT22;9278;52.156;21.048;2023-07-02T01:04:58;26.30;32.10
18305;DHT22;9278;52.156;21.048;2023-07-02T01:07:28;26.30;31.70
18305;DHT22;9278;52.156;21.048;2023-07-02T01:09:56;26.30;31.40
18305;DHT22;9278;52.156;21.048;2023-07-02T01:12:26;26.20;32.60
18305;DHT22;9278;52.156;21.048;2023-07-02T01:14:57;26.30;33.10
18305;DHT22;9278;52.156;21.048;2023-07-02T01:17:29;26.30;32.50
18305;DHT22;9278;52.156;21.048;2023-07-02T01:20:11;26.30;33.30
18305;DHT22;9278;52.156;21.048;2023-07-02T01:22:40;26.30;32.70
18305;DHT22;9278;52.156;21.048;2023-07-02T01:25:09;26.30;32.50
18305;DHT22;9278;52.156;21.048;2023-07-02T01:27:37;26.20;33.00
18305;DHT22;9278;52.156;21.048;2023-07-02T01:30:07;26.20;34.50
18305;DHT22;9278;52.156;21.048;2023-07-02T01:32:37;26.20;32.00
18305;DHT22;9278;52.156;21.048;2023-07-02T01:35:07;26.30;33.00
18305;DHT22;9278;52.156;21.048;2023-07-02T01:37:37;26.30;32.60
18305;DHT22;9278;52.156;21.048;2023-07-02T01:40:07;26.30;32.50
18305;DHT22;9278;52.156;21.048;2023-07-02T01:42:36;26.20;32.40
18305;DHT22;9278;52.156;21.048;2023-07-02T01:45:06;26.30;33.20
18305;DHT22;9278;52.156;21.048;2023-07-02T01:47:34;26.30;32.30
18305;DHT22;9278;52.156;21.048;2023-07-02T01:50:04;26.30;33.50
18305;DHT22;9278;52.156;21.048;2023-07-02T01:52:34;26.20;32.50
18305;DHT22;9278;52.156;21.048;2023-07-02T01:55:04;26.20;32.50
18305;DHT22;9278;52.156;21.048;2023-07-02T01:57:32;26.20;32.70
18305;DHT22;9278;52.156;21.048;2023-07-02T02:00:01;26.20;33.30
18305;DHT22;9278;52.156;21.048;2023-07-02T02:02:41;26.20;32.70
18305;DHT22;9278;52.156;21.048;2023-07-02T02:05:10;26.20;31.70
18305;DHT22;9278;52.156;21.048;2023-07-02T02:07:38;26.30;33.40
18305;DHT22;9278;52.156;21.048;2023-07-02T02:10:09;26.20;55.60
18305;DHT22;9278;52.156;21.048;2023-07-02T02:12:37;26.20;33.90
18305;DHT22;9278;52.156;21.048;2023-07-02T02:15:07;26.20;33.70
18305;DHT22;9278;52.156;21.048;2023-07-02T02:17:35;26.20;32.90
18305;DHT22;9278;52.156;21.048;2023-07-02T02:20:05;26.30;32.90
18305;DHT22;9278;52.156;21.048;2023-07-02T02:22:35;26.30;33.00
18305;DHT22;9278;52.156;21.048;2023-07-02T02:25:04;26.30;57.30
18305;DHT22;9278;52.156;21.048;2023-07-02T02:27:34;26.30;31.90
18305;DHT22;9278;52.156;21.048;2023-07-02T02:30:03;26.30;32.80
18305;DHT22;9278;52.156;21.048;2023-07-02T02:32:34;26.30;32.60
18305;DHT22;9278;52.156;21.048;2023-07-02T02:35:02;26.30;31.80
18305;DHT22;9278;52.156;21.048;2023-07-02T02:37:33;26.30;31.80
18305;DHT22;9278;52.156;21.048;2023-07-02T02:40:03;26.30;32.60
18305;DHT22;9278;52.156;21.048;2023-07-02T02:42:34;26.20;33.20
18305;DHT22;9278;52.156;21.048;2023-07-02T02:45:04;26.20;32.60
18305;DHT22;9278;52.156;21.048;2023-07-02T02:47:33;26.30;33.00
18305;DHT22;9278;52.156;21.048;2023-07-02T02:50:02;26.30;32.90
18305;DHT22;9278;52.156;21.048;2023-07-02T02:52:31;26.20;32.70
18305;DHT22;9278;52.156;21.048;2023-07-02T02:54:59;26.20;33.40
18305;DHT22;9278;52.156;21.048;2023-07-02T02:57:27;26.20;33.00
18305;DHT22;9278;52.156;21.048;2023-07-02T02:59:57;26.20;32.00
18305;DHT22;9278;52.156;21.048;2023-07-02T03:02:25;26.20;32.30
18305;DHT22;9278;52.156;21.048;2023-07-02T03:04:54;26.30;32.80
18305;DHT22;9278;52.156;21.048;2023-07-02T03:07:24;26.20;32.50
18305;DHT22;9278;52.156;21.048;2023-07-02T03:09:52;26.30;32.20
18305;DHT22;9278;52.156;21.048;2023-07-02T03:12:21;26.20;32.60
18305;DHT22;9278;52.156;21.048;2023-07-02T03:14:52;26.20;32.30
18305;DHT22;9278;52.156;21.048;2023-07-02T03:17:24;26.20;56.10
18305;DHT22;9278;52.156;21.048;2023-07-02T03:19:52;26.20;32.10
18305;DHT22;9278;52.156;21.048;2023-07-02T03:22:21;26.20;31.40
18305;DHT22;9278;52.156;21.048;2023-07-02T03:24:49;26.20;32.30
18305;DHT22;9278;52.156;21.048;2023-07-02T03:27:17;26.20;58.20
18305;DHT22;9278;52.156;21.048;2023-07-02T03:29:45;26.20;33.30
18305;DHT22;9278;52.156;21.048;2023-07-02T03:32:13;26.20;32.00
18305;DHT22;9278;52.156;21.048;2023-07-02T03:34:43;26.20;33.50
18305;DHT22;9278;52.156;21.048;2023-07-02T03:37:11;26.20;32.30
18305;DHT22;9278;52.156;21.048;2023-07-02T03:39:39;26.20;33.10
18305;DHT22;9278;52.156;21.048;2023-07-02T03:42:08;26.20;31.60
18305;DHT22;9278;52.156;21.048;2023-07-02T03:44:36;26.10;31.90
18305;DHT22;9278;52.156;21.048;2023-07-02T03:47:05;26.20;33.00
18305;DHT22;9278;52.156;21.048;2023-07-02T03:49:35;26.20;32.80
18305;DHT22;9278;52.156;21.048;2023-07-02T03:52:06;26.10;32.00
18305;DHT22;9278;52.156;21.048;2023-07-02T03:54:34;26.20;31.90
18305;DHT22;9278;52.156;21.048;2023-07-02T03:57:03;26.10;54.70
18305;DHT22;9278;52.156;21.048;2023-07-02T03:59:31;26.20;55.50
18305;DHT22;9278;52.156;21.048;2023-07-02T04:01:59;26.20;33.40
18305;DHT22;9278;52.156;21.048;2023-07-02T04:04:28;26.20;31.50
18305;DHT22;9278;52.156;21.048;2023-07-02T04:06:56;26.20;32.10
18305;DHT22;9278;52.156;21.048;2023-07-02T04:09:26;26.20;31.50
18305;DHT22;9278;52.156;21.048;2023-07-02T04:11:54;26.20;32.30
18305;DHT22;9278;52.156;21.048;2023-07-02T04:14:22;26.20;31.50
18305;DHT22;9278;52.156;21.048;2023-07-02T04:16:51;26.20;31.50
18305;DHT22;9278;52.156;21.048;2023-07-02T04:19:19;26.20;31.50
18305;DHT22;9278;52.156;21.048;2023-07-02T04:21:47;26.20;31.70
18305;DHT22;9278;52.156;21.048;2023-07-02T04:24:16;26.20;32.70
18305;DHT22;9278;52.156;21.048;2023-07-02T04:26:46;26.20;31.80
18305;DHT22;9278;52.156;21.048;2023-07-02T04:29:34;26.20;31.00
18305;DHT22;9278;52.156;21.048;2023-07-02T04:32:02;26.30;31.00
18305;DHT22;9278;52.156;21.048;2023-07-02T04:34:31;26.20;31.10
18305;DHT22;9278;52.156;21.048;2023-07-02T04:36:59;26.20;31.20
18305;DHT22;9278;52.156;21.048;2023-07-02T04:39:27;26.20;30.90
18305;DHT22;9278;52.156;21.048;2023-07-02T04:41:57;26.20;30.90
18305;DHT22;9278;52.156;21.048;2023-07-02T04:44:25;26.20;31.60
18305;DHT22;9278;52.156;21.048;2023-07-02T04:46:57;26.20;30.90
18305;DHT22;9278;52.156;21.048;2023-07-02T04:49:25;26.20;30.10
18305;DHT22;9278;52.156;21.048;2023-07-02T04:51:54;26.20;31.10
18305;DHT22;9278;52.156;21.048;2023-07-02T04:54:22;26.20;30.60
18305;DHT22;9278;52.156;21.048;2023-07-02T04:56:51;26.20;30.70
18305;DHT22;9278;52.156;21.048;2023-07-02T04:59:21;26.20;31.20
18305;DHT22;9278;52.156;21.048;2023-07-02T05:01:49;26.20;30.60
18305;DHT22;9278;52.156;21.048;2023-07-02T05:04:18;26.20;30.40
18305;DHT22;9278;52.156;21.048;2023-07-02T05:06:47;26.20;30.10
18305;DHT22;9278;52.156;21.048;2023-07-02T05:09:15;26.10;30.50
18305;DHT22;9278;52.156;21.048;2023-07-02T05:11:43;26.20;30.60
18305;DHT22;9278;52.156;21.048;2023-07-02T05:14:11;26.20;30.50
18305;DHT22;9278;52.156;21.048;2023-07-02T05:16:41;26.10;29.90
18305;DHT22;9278;52.156;21.048;2023-07-02T05:19:09;26.20;29.60
18305;DHT22;9278;52.156;21.048;2023-07-02T05:21:37;26.20;30.90
18305;DHT22;9278;52.156;21.048;2023-07-02T05:24:08;26.20;29.60
18305;DHT22;9278;52.156;21.048;2023-07-02T05:26:36;26.20;53.40
18305;DHT22;9278;52.156;21.048;2023-07-02T05:29:04;26.20;30.30
18305;DHT22;9278;52.156;21.048;2023-07-02T05:31:33;26.30;29.40
18305;DHT22;9278;52.156;21.048;2023-07-02T05:34:03;26.30;30.40
18305;DHT22;9278;52.156;21.048;2023-07-02T05:36:31;26.30;29.70
18305;DHT22;9278;52.156;21.048;2023-07-02T05:39:01;26.30;29.60
18305;DHT22;9278;52.156;21.048;2023-07-02T05:41:29;26.30;29.80
18305;DHT22;9278;52.156;21.048;2023-07-02T05:43:58;26.30;29.90
18305;DHT22;9278;52.156;21.048;2023-07-02T05:46:26;26.30;29.10
18305;DHT22;9278;52.156;21.048;2023-07-02T05:48:55;26.30;29.60
18305;DHT22;9278;52.156;21.048;2023-07-02T05:51:25;26.30;29.10
18305;DHT22;9278;52.156;21.048;2023-07-02T05:53:53;26.30;28.90
18305;DHT22;9278;52.156;21.048;2023-07-02T05:56:22;26.30;29.20
18305;DHT22;9278;52.156;21.048;2023-07-02T05:58:50;26.30;28.60
18305;DHT22;9278;52.156;21.048;2023-07-02T06:01:18;26.30;29.40
18305;DHT22;9278;52.156;21.048;2023-07-02T06:03:49;26.40;28.70
18305;DHT22;9278;52.156;21.048;2023-07-02T06:06:17;26.30;28.90
18305;DHT22;9278;52.156;21.048;2023-07-02T06:08:47;26.30;28.40
18305;DHT22;9278;52.156;21.048;2023-07-02T06:11:15;26.30;28.90
18305;DHT22;9278;52.156;21.048;2023-07-02T06:13:44;26.30;28.40
18305;DHT22;9278;52.156;21.048;2023-07-02T06:16:12;26.30;28.80
18305;DHT22;9278;52.156;21.048;2023-07-02T06:18:40;26.30;28.30
18305;DHT22;9278;52.156;21.048;2023-07-02T06:21:09;26.30;28.90
18305;DHT22;9278;52.156;21.048;2023-07-02T06:23:41;26.30;28.80
18305;DHT22;9278;52.156;21.048;2023-07-02T06:26:11;26.30;28.30
18305;DHT22;9278;52.156;21.048;2023-07-02T06:28:39;26.30;28.30
18305;DHT22;9278;52.156;21.048;2023-07-02T06:31:07;26.30;28.50
18305;DHT22;9278;52.156;21.048;2023-07-02T06:33:38;26.30;28.10
18305;DHT22;9278;52.156;21.048;2023-07-02T06:36:07;26.30;27.50
18305;DHT22;9278;52.156;21.048;2023-07-02T06:38:38;26.30;27.80
18305;DHT22;9278;52.156;21.048;2023-07-02T06:41:07;26.40;27.70
18305;DHT22;9278;52.156;21.048;2023-07-02T06:43:36;26.40;27.90
18305;DHT22;9278;52.156;21.048;2023-07-02T06:46:05;26.40;27.90
18305;DHT22;9278;52.156;21.048;2023-07-02T06:48:33;26.40;28.20
18305;DHT22;9278;52.156;21.048;2023-07-02T06:51:01;26.40;28.00
18305;DHT22;9278;52.156;21.048;2023-07-02T06:53:29;26.30;27.90
18305;DHT22;9278;52.156;21.048;2023-07-02T06:55:57;26.30;27.80
18305;DHT22;9278;52.156;21.048;2023-07-02T06:58:26;26.30;27.30
18305;DHT22;9278;52.156;21.048;2023-07-02T07:00:55;26.30;27.80
18305;DHT22;9278;52.156;21.048;2023-07-02T07:03:23;26.30;27.70
18305;DHT22;9278;52.156;21.048;2023-07-02T07:05:52;26.30;27.90
18305;DHT22;9278;52.156;21.048;2023-07-02T07:08:20;26.40;28.40
18305;DHT22;9278;52.156;21.048;2023-07-02T07:10:50;26.40;27.40
18305;DHT22;9278;52.156;21.048;2023-07-02T07:13:18;26.40;26.90
18305;DHT22;9278;52.156;21.048;2023-07-02T07:15:47;26.30;26.40
18305;DHT22;9278;52.156;21.048;2023-07-02T07:18:16;26.40;26.90
18305;DHT22;9278;52.156;21.048;2023-07-02T07:20:46;26.40;27.20
18305;DHT22;9278;52.156;21.048;2023-07-02T07:23:15;26.40;27.40
18305;DHT22;9278;52.156;21.048;2023-07-02T07:25:43;26.40;27.30
18305;DHT22;9278;52.156;21.048;2023-07-02T07:28:11;26.40;27.20
18305;DHT22;9278;52.156;21.048;2023-07-02T07:30:43;26.40;26.50
18305;DHT22;9278;52.156;21.048;2023-07-02T07:33:11;26.40;27.30
18305;DHT22;9278;52.156;21.048;2023-07-02T07:35:41;26.40;26.40
18305;DHT22;9278;52.156;21.048;2023-07-02T07:38:09;26.40;27.20
18305;DHT22;9278;52.156;21.048;2023-07-02T07:40:37;26.40;27.60
18305;DHT22;9278;52.156;21.048;2023-07-02T07:43:05;26.40;26.60
18305;DHT22;9278;52.156;21.048;2023-07-02T07:45:33;26.40;26.70
18305;DHT22;9278;52.156;21.048;2023-07-02T07:48:02;26.40;26.90
18305;DHT22;9278;52.156;21.048;2023-07-02T07:50:31;26.40;27.30
18305;DHT22;9278;52.156;21.048;2023-07-02T07:53:00;26.40;26.90
18305;DHT22;9278;52.156;21.048;2023-07-02T07:55:29;26.40;27.30
18305;DHT22;9278;52.156;21.048;2023-07-02T07:57:57;26.40;27.40
18305;DHT22;9278;52.156;21.048;2023-07-02T08:00:25;26.40;27.20
18305;DHT22;9278;52.156;21.048;2023-07-02T08:02:54;26.40;26.50
18305;DHT22;9278;52.156;21.048;2023-07-02T08:05:23;26.40;26.60
18305;DHT22;9278;52.156;21.048;2023-07-02T08:07:51;26.40;27.10
18305;DHT22;9278;52.156;21.048;2023-07-02T08:10:21;26.40;27.50
18305;DHT22;9278;52.156;21.048;2023-07-02T08:12:51;26.40;27.30
18305;DHT22;9278;52.156;21.048;2023-07-02T08:15:20;26.40;26.30
18305;DHT22;9278;52.156;21.048;2023-07-02T08:17:48;26.40;26.60
18305;DHT22;9278;52.156;21.048;2023-07-02T08:20:18;26.40;27.30
18305;DHT22;9278;52.156;21.048;2023-07-02T08:22:46;26.40;27.60
18305;DHT22;9278;52.156;21.048;2023-07-02T08:25:15;26.40;27.00
18305;DHT22;9278;52.156;21.048;2023-07-02T08:27:45;26.50;27.10
18305;DHT22;9278;52.156;21.048;2023-07-02T08:30:14;26.50;26.60
18305;DHT22;9278;52.156;21.048;2023-07-02T08:32:42;26.50;26.30
18305;DHT22;9278;52.156;21.048;2023-07-02T08:35:10;26.50;27.00
18305;DHT22;9278;52.156;21.048;2023-07-02T08:37:38;26.50;26.60
18305;DHT22;9278;52.156;21.048;2023-07-02T08:40:15;26.50;26.70
18305;DHT22;9278;52.156;21.048;2023-07-02T08:42:46;26.50;28.20
18305;DHT22;9278;52.156;21.048;2023-07-02T08:45:15;26.50;26.90
18305;DHT22;9278;52.156;21.048;2023-07-02T08:47:44;26.50;26.60
18305;DHT22;9278;52.156;21.048;2023-07-02T08:50:13;26.50;27.80
18305;DHT22;9278;52.156;21.048;2023-07-02T08:52:42;26.50;26.90
18305;DHT22;9278;52.156;21.048;2023-07-02T08:55:12;26.50;28.00
18305;DHT22;9278;52.156;21.048;2023-07-02T08:57:40;26.50;26.90
18305;DHT22;9278;52.156;21.048;2023-07-02T09:00:18;26.50;27.50
18305;DHT22;9278;52.156;21.048;2023-07-02T09:02:46;26.60;27.30
18305;DHT22;9278;52.156;21.048;2023-07-02T09:05:15;26.60;27.50
18305;DHT22;9278;52.156;21.048;2023-07-02T09:07:44;26.50;26.70
18305;DHT22;9278;52.156;21.048;2023-07-02T09:10:24;26.50;27.50
18305;DHT22;9278;52.156;21.048;2023-07-02T09:13:03;26.50;26.80
18305;DHT22;9278;52.156;21.048;2023-07-02T09:15:37;26.60;27.00
18305;DHT22;9278;52.156;21.048;2023-07-02T09:18:16;26.60;27.50
18305;DHT22;9278;52.156;21.048;2023-07-02T09:20:45;26.60;27.60
18305;DHT22;9278;52.156;21.048;2023-07-02T09:23:14;26.60;27.80
18305;DHT22;9278;52.156;21.048;2023-07-02T09:25:43;26.60;27.80
18305;DHT22;9278;52.156;21.048;2023-07-02T09:28:16;26.60;27.40
18305;DHT22;9278;52.156;21.048;2023-07-02T09:30:53;26.50;27.50
18305;DHT22;9278;52.156;21.048;2023-07-02T09:33:23;26.50;28.20
18305;DHT22;9278;52.156;21.048;2023-07-02T09:35:52;26.60;28.60
18305;DHT22;9278;52.156;21.048;2023-07-02T09:38:21;26.50;28.40
18305;DHT22;9278;52.156;21.048;2023-07-02T09:40:51;26.50;28.60
18305;DHT22;9278;52.156;21.048;2023-07-02T09:43:20;26.50;28.40
18305;DHT22;9278;52.156;21.048;2023-07-02T09:45:52;26.50;28.10
18305;DHT22;9278;52.156;21.048;2023-07-02T09:48:24;26.50;28.40
18305;DHT22;9278;52.156;21.048;2023-07-02T09:50:54;26.50;28.60
18305;DHT22;9278;52.156;21.048;2023-07-02T09:53:23;26.50;28.50
18305;DHT22;9278;52.156;21.048;2023-07-02T09:55:51;26.50;28.60
18305;DHT22;9278;52.156;21.048;2023-07-02T09:58:20;26.50;28.30
18305;DHT22;9278;52.156;21.048;2023-07-02T10:00:48;26.50;28.90
18305;DHT22;9278;52.156;21.048;2023-07-02T10:03:28;26.50;27.80
18305;DHT22;9278;52.156;21.048;2023-07-02T10:06:04;26.60;28.20
18305;DHT22;9278;52.156;21.048;2023-07-02T10:08:33;26.50;29.20
18305;DHT22;9278;52.156;21.048;2023-07-02T10:11:11;26.50;28.60
18305;DHT22;9278;52.156;21.048;2023-07-02T10:13:41;26.50;28.50
18305;DHT22;9278;52.156;21.048;2023-07-02T10:16:09;26.50;28.70
18305;DHT22;9278;52.156;21.048;2023-07-02T10:18:39;26.50;29.00
18305;DHT22;9278;52.156;21.048;2023-07-02T10:21:14;26.50;29.30
18305;DHT22;9278;52.156;21.048;2023-07-02T10:23:43;26.50;29.40
18305;DHT22;9278;52.156;21.048;2023-07-02T10:26:16;26.50;29.10
18305;DHT22;9278;52.156;21.048;2023-07-02T10:28:56;26.50;29.40
18305;DHT22;9278;52.156;21.048;2023-07-02T10:31:24;26.50;28.70
18305;DHT22;9278;52.156;21.048;2023-07-02T10:33:54;26.50;28.70
18305;DHT22;9278;52.156;21.048;2023-07-02T10:36:23;26.50;29.00
18305;DHT22;9278;52.156;21.048;2023-07-02T10:38:52;26.40;28.40
18305;DHT22;9278;52.156;21.048;2023-07-02T10:41:24;26.40;28.50
18305;DHT22;9278;52.156;21.048;2023-07-02T10:43:53;26.50;28.20
18305;DHT22;9278;52.156;21.048;2023-07-02T10:46:22;26.50;28.90
18305;DHT22;9278;52.156;21.048;2023-07-02T10:48:55;26.50;30.00
18305;DHT22;9278;52.156;21.048;2023-07-02T10:51:24;26.50;28.50
18305;DHT22;9278;52.156;21.048;2023-07-02T10:53:59;26.50;29.40
18305;DHT22;9278;52.156;21.048;2023-07-02T10:56:27;26.50;29.20
18305;DHT22;9278;52.156;21.048;2023-07-02T10:58:56;26.50;28.80
18305;DHT22;9278;52.156;21.048;2023-07-02T11:01:26;26.50;28.90
18305;DHT22;9278;52.156;21.048;2023-07-02T11:04:00;26.50;28.90
18305;DHT22;9278;52.156;21.048;2023-07-02T11:06:32;26.50;28.90
18305;DHT22;9278;52.156;21.048;2023-07-02T11:09:00;26.40;28.20
18305;DHT22;9278;52.156;21.048;2023-07-02T11:11:29;26.50;28.20
18305;DHT22;9278;52.156;21.048;2023-07-02T11:13:57;26.40;29.30
18305;DHT22;9278;52.156;21.048;2023-07-02T11:16:26;26.40;29.10
18305;DHT22;9278;52.156;21.048;2023-07-02T11:19:08;26.40;28.80
18305;DHT22;9278;52.156;21.048;2023-07-02T11:21:37;26.40;28.40
18305;DHT22;9278;52.156;21.048;2023-07-02T11:24:07;26.40;29.00
18305;DHT22;9278;52.156;21.048;2023-07-02T11:26:37;26.40;29.30
18305;DHT22;9278;52.156;21.048;2023-07-02T11:29:11;26.40;28.70
18305;DHT22;9278;52.156;21.048;2023-07-02T11:31:39;26.40;28.60
18305;DHT22;9278;52.156;21.048;2023-07-02T11:34:16;26.40;28.60
18305;DHT22;9278;52.156;21.048;2023-07-02T11:36:45;26.40;29.50
18305;DHT22;9278;52.156;21.048;2023-07-02T11:39:14;26.40;27.80
18305;DHT22;9278;52.156;21.048;2023-07-02T11:41:44;26.40;27.30
18305;DHT22;9278;52.156;21.048;2023-07-02T11:44:12;26.40;28.10
18305;DHT22;9278;52.156;21.048;2023-07-02T11:46:41;26.40;29.00
18305;DHT22;9278;52.156;21.048;2023-07-02T11:49:09;26.40;28.40
18305;DHT22;9278;52.156;21.048;2023-07-02T11:51:40;26.40;29.00
18305;DHT22;9278;52.156;21.048;2023-07-02T11:54:08;26.40;30.00
18305;DHT22;9278;52.156;21.048;2023-07-02T11:56:36;26.40;29.60
18305;DHT22;9278;52.156;21.048;2023-07-02T11:59:05;26.50;29.10
18305;DHT22;9278;52.156;21.048;2023-07-02T12:01:33;26.50;29.10
18305;DHT22;9278;52.156;21.048;2023-07-02T12:04:01;26.50;28.90
18305;DHT22;9278;52.156;21.048;2023-07-02T12:06:30;26.50;28.90
18305;DHT22;9278;52.156;21.048;2023-07-02T12:08:59;26.50;28.70
18305;DHT22;9278;52.156;21.048;2023-07-02T12:11:27;26.50;29.30
18305;DHT22;9278;52.156;21.048;2023-07-02T12:13:56;26.50;28.50
18305;DHT22;9278;52.156;21.048;2023-07-02T12:16:24;26.50;28.70
18305;DHT22;9278;52.156;21.048;2023-07-02T12:18:54;26.60;28.40
18305;DHT22;9278;52.156;21.048;2023-07-02T12:21:22;26.50;29.90
18305;DHT22;9278;52.156;21.048;2023-07-02T12:23:51;26.60;29.20
18305;DHT22;9278;52.156;21.048;2023-07-02T12:26:20;26.50;28.70
18305;DHT22;9278;52.156;21.048;2023-07-02T12:28:48;26.50;30.10
18305;DHT22;9278;52.156;21.048;2023-07-02T12:31:17;26.50;29.20
18305;DHT22;9278;52.156;21.048;2023-07-02T12:33:45;26.50;28.80
18305;DHT22;9278;52.156;21.048;2023-07-02T12:36:13;26.60;28.30
18305;DHT22;9278;52.156;21.048;2023-07-02T12:38:41;26.50;29.80
18305;DHT22;9278;52.156;21.048;2023-07-02T12:41:11;26.60;29.60
18305;DHT22;9278;52.156;21.048;2023-07-02T12:43:41;26.60;29.20
18305;DHT22;9278;52.156;21.048;2023-07-02T12:46:09;26.50;28.60
18305;DHT22;9278;52.156;21.048;2023-07-02T12:48:37;26.60;28.40
18305;DHT22;9278;52.156;21.048;2023-07-02T12:51:06;26.60;28.00
18305;DHT22;9278;52.156;21.048;2023-07-02T12:53:34;26.50;27.40
18305;DHT22;9278;52.156;21.048;2023-07-02T12:56:02;26.50;27.50
18305;DHT22;9278;52.156;21.048;2023-07-02T12:58:31;26.50;27.60
18305;DHT22;9278;52.156;21.048;2023-07-02T13:01:00;26.50;26.90
18305;DHT22;9278;52.156;21.048;2023-07-02T13:03:30;26.60;27.30
18305;DHT22;9278;52.156;21.048;2023-07-02T13:05:58;26.50;26.80
18305;DHT22;9278;52.156;21.048;2023-07-02T13:08:26;26.50;26.70
18305;DHT22;9278;52.156;21.048;2023-07-02T13:10:55;26.50;24.90
18305;DHT22;9278;52.156;21.048;2023-07-02T13:13:23;26.50;25.70
18305;DHT22;9278;52.156;21.048;2023-07-02T13:15:55;26.50;24.90
18305;DHT22;9278;52.156;21.048;2023-07-02T13:18:26;26.40;23.80
18305;DHT22;9278;52.156;21.048;2023-07-02T13:20:54;26.40;22.60
18305;DHT22;9278;52.156;21.048;2023-07-02T13:23:22;26.50;23.30
18305;DHT22;9278;52.156;21.048;2023-07-02T13:25:50;26.50;23.80
18305;DHT22;9278;52.156;21.048;2023-07-02T13:28:19;26.50;22.40
18305;DHT22;9278;52.156;21.048;2023-07-02T13:30:48;26.50;22.80
18305;DHT22;9278;52.156;21.048;2023-07-02T13:33:16;26.50;22.60
18305;DHT22;9278;52.156;21.048;2023-07-02T13:35:46;26.40;21.70
18305;DHT22;9278;52.156;21.048;2023-07-02T13:38:15;26.40;22.10
18305;DHT22;9278;52.156;21.048;2023-07-02T13:40:43;26.40;21.10
18305;DHT22;9278;52.156;21.048;2023-07-02T13:43:12;26.40;21.10
18305;DHT22;9278;52.156;21.048;2023-07-02T13:45:40;26.40;21.00
18305;DHT22;9278;52.156;21.048;2023-07-02T13:48:08;26.30;19.10
18305;DHT22;9278;52.156;21.048;2023-07-02T13:50:37;26.30;19.70
18305;DHT22;9278;52.156;21.048;2023-07-02T13:53:07;26.30;20.10
18305;DHT22;9278;52.156;21.048;2023-07-02T13:55:35;26.30;19.50
18305;DHT22;9278;52.156;21.048;2023-07-02T13:58:04;26.30;18.80
18305;DHT22;9278;52.156;21.048;2023-07-02T14:00:33;26.30;18.50
18305;DHT22;9278;52.156;21.048;2023-07-02T14:03:02;26.30;19.10
18305;DHT22;9278;52.156;21.048;2023-07-02T14:05:31;26.30;18.30
18305;DHT22;9278;52.156;21.048;2023-07-02T14:08:00;26.30;18.80
18305;DHT22;9278;52.156;21.048;2023-07-02T14:10:28;26.30;17.70
18305;DHT22;9278;52.156;21.048;2023-07-02T14:12:56;26.30;38.20
18305;DHT22;9278;52.156;21.048;2023-07-02T14:15:25;26.40;17.00
18305;DHT22;9278;52.156;21.048;2023-07-02T14:17:58;26.30;17.50
18305;DHT22;9278;52.156;21.048;2023-07-02T14:20:26;26.40;18.30
18305;DHT22;9278;52.156;21.048;2023-07-02T14:22:55;26.40;17.30
18305;DHT22;9278;52.156;21.048;2023-07-02T14:25:23;26.30;17.20
18305;DHT22;9278;52.156;21.048;2023-07-02T14:28:07;26.30;17.10
18305;DHT22;9278;52.156;21.048;2023-07-02T14:30:36;26.30;16.80
18305;DHT22;9278;52.156;21.048;2023-07-02T14:33:06;26.30;17.20
18305;DHT22;9278;52.156;21.048;2023-07-02T14:35:34;26.30;16.80
18305;DHT22;9278;52.156;21.048;2023-07-02T14:38:02;26.30;16.60
18305;DHT22;9278;52.156;21.048;2023-07-02T14:40:31;26.30;16.90
18305;DHT22;9278;52.156;21.048;2023-07-02T14:43:00;26.30;14.80
18305;DHT22;9278;52.156;21.048;2023-07-02T14:45:31;26.30;14.40
18305;DHT22;9278;52.156;21.048;2023-07-02T14:47:59;26.30;13.90
18305;DHT22;9278;52.156;21.048;2023-07-02T14:50:29;26.30;14.50
18305;DHT22;9278;52.156;21.048;2023-07-02T14:52:58;26.30;14.60
18305;DHT22;9278;52.156;21.048;2023-07-02T14:55:26;26.30;13.60
18305;DHT22;9278;52.156;21.048;2023-07-02T14:57:54;26.20;13.30
18305;DHT22;9278;52.156;21.048;2023-07-02T15:00:23;26.30;13.60
18305;DHT22;9278;52.156;21.048;2023-07-02T15:02:51;26.30;14.40
18305;DHT22;9278;52.156;21.048;2023-07-02T15:05:19;26.30;14.00
18305;DHT22;9278;52.156;21.048;2023-07-02T15:07:49;26.30;14.50
18305;DHT22;9278;52.156;21.048;2023-07-02T15:10:18;26.30;13.20
18305;DHT22;9278;52.156;21.048;2023-07-02T15:12:46;26.30;13.20
18305;DHT22;9278;52.156;21.048;2023-07-02T15:15:15;26.30;13.00
18305;DHT22;9278;52.156;21.048;2023-07-02T15:17:43;26.30;13.80
18305;DHT22;9278;52.156;21.048;2023-07-02T15:20:12;26.30;32.30
18305;DHT22;9278;52.156;21.048;2023-07-02T15:22:40;26.30;13.10
18305;DHT22;9278;52.156;21.048;2023-07-02T15:25:10;26.30;12.60
18305;DHT22;9278;52.156;21.048;2023-07-02T15:27:38;26.30;13.80
18305;DHT22;9278;52.156;21.048;2023-07-02T15:30:07;26.30;13.00
18305;DHT22;9278;52.156;21.048;2023-07-02T15:32:35;26.30;14.10
18305;DHT22;9278;52.156;21.048;2023-07-02T15:35:04;26.30;14.10
18305;DHT22;9278;52.156;21.048;2023-07-02T15:37:32;26.30;13.20
18305;DHT22;9278;52.156;21.048;2023-07-02T15:40:01;26.30;31.00
18305;DHT22;9278;52.156;21.048;2023-07-02T15:42:30;26.30;14.20